sensor_id;sensor_type;location;lat;lon;timestamp;temperature;humidity
14170;DHT22;7164;50.524;8.676;2022-07-06T00:00:32;17.50;99.90
14170;DHT22;7164;50.524;8.676;2022-07-06T00:02:58;17.50;99.90
14170;DHT22;7164;50.524;8.676;2022-07-06T00:05:24;17.50;99.90
14170;DHT22;7164;50.524;8.676;2022-07-06T00:07:50;17.60;99.90
14170;DHT22;7164;50.524;8.676;2022-07-06T00:10:15;17.50;99.90
14170;DHT22;7164;50.524;8.676;2022-07-06T00:12:41;17.50;99.90
14170;DHT22;7164;50.524;8.676;2022-07-06T00:15:07;17.50;99.90
14170;DHT22;7164;50.524;8.676;2022-07-06T00:17:32;17.40;99.90
14170;DHT22;7164;50.524;8.676;2022-07-06T00:19:58;17.40;99.90
14170;DHT22;7164;50.524;8.676;2022-07-06T00:22:23;17.30;99.90
14170;DHT22;7164;50.524;8.676;2022-07-06T00:24:49;17.20;99.90
14170;DHT22;7164;50.524;8.676;2022-07-06T00:27:15;17.20;99.90
14170;DHT22;7164;50.524;8.676;2022-07-06T00:29:40;17.10;99.90
14170;DHT22;7164;50.524;8.676;2022-07-06T00:32:10;17.10;99.90
14170;DHT22;7164;50.524;8.676;2022-07-06T00:34:35;17.10;99.90
14170;DHT22;7164;50.524;8.676;2022-07-06T00:37:01;17.10;99.90
14170;DHT22;7164;50.524;8.676;2022-07-06T00:39:27;17.10;99.90
14170;DHT22;7164;50.524;8.676;2022-07-06T00:41:55;17.10;99.90
14170;DHT22;7164;50.524;8.676;2022-07-06T00:44:21;17.00;99.90
14170;DHT22;7164;50.524;8.676;2022-07-06T00:46:47;16.90;99.90
14170;DHT22;7164;50.524;8.676;2022-07-06T00:49:12;16.90;99.90
14170;DHT22;7164;50.524;8.676;2022-07-06T00:51:59;16.90;99.90
14170;DHT22;7164;50.524;8.676;2022-07-06T00:54:26;16.90;99.90
14170;DHT22;7164;50.524;8.676;2022-07-06T00:56:52;16.80;99.90
14170;DHT22;7164;50.524;8.676;2022-07-06T00:59:18;16.60;99.90
14170;DHT22;7164;50.524;8.676;2022-07-06T01:01:43;16.60;99.90
14170;DHT22;7164;50.524;8.676;2022-07-06T01:04:09;16.50;99.90
14170;DHT22;7164;50.524;8.676;2022-07-06T01:06:35;16.50;99.90
14170;DHT22;7164;50.524;8.676;2022-07-06T01:09:01;16.50;99.90
14170;DHT22;7164;50.524;8.676;2022-07-06T01:11:27;16.50;99.90
14170;DHT22;7164;50.524;8.676;2022-07-06T01:13:54;16.30;99.90
14170;DHT22;7164;50.524;8.676;2022-07-06T01:16:21;16.20;99.90
14170;DHT22;7164;50.524;8.676;2022-07-06T01:18:47;16.00;99.90
14170;DHT22;7164;50.524;8.676;2022-07-06T01:21:14;16.00;99.90
14170;DHT22;7164;50.524;8.676;2022-07-06T01:23:45;16.00;99.90
14170;DHT22;7164;50.524;8.676;2022-07-06T01:26:14;16.20;99.90
14170;DHT22;7164;50.524;8.676;2022-07-06T01:28:40;16.30;99.90
14170;DHT22;7164;50.524;8.676;2022-07-06T01:31:23;16.40;99.90
14170;DHT22;7164;50.524;8.676;2022-07-06T01:33:50;16.30;99.90
14170;DHT22;7164;50.524;8.676;2022-07-06T01:36:16;16.20;99.90
14170;DHT22;7164;50.524;8.676;2022-07-06T01:38:52;16.10;99.90
14170;DHT22;7164;50.524;8.676;2022-07-06T01:41:18;16.10;99.90
14170;DHT22;7164;50.524;8.676;2022-07-06T01:43:45;15.90;99.90
14170;DHT22;7164;50.524;8.676;2022-07-06T01:46:11;15.90;99.90
14170;DHT22;7164;50.524;8.676;2022-07-06T01:48:38;16.00;99.90
14170;DHT22;7164;50.524;8.676;2022-07-06T01:51:04;15.90;99.90
14170;DHT22;7164;50.524;8.676;2022-07-06T01:53:30;16.00;99.90
14170;DHT22;7164;50.524;8.676;2022-07-06T01:55:56;15.90;99.90
14170;DHT22;7164;50.524;8.676;2022-07-06T01:58:22;15.90;99.90
14170;DHT22;7164;50.524;8.676;2022-07-06T02:00:47;15.80;99.90
14170;DHT22;7164;50.524;8.676;2022-07-06T02:03:13;15.70;99.90
14170;DHT22;7164;50.524;8.676;2022-07-06T02:05:39;15.70;99.90
14170;DHT22;7164;50.524;8.676;2022-07-06T02:08:05;15.80;99.90
14170;DHT22;7164;50.524;8.676;2022-07-06T02:10:30;15.70;99.90
14170;DHT22;7164;50.524;8.676;2022-07-06T02:12:56;15.70;99.90
14170;DHT22;7164;50.524;8.676;2022-07-06T02:15:21;15.70;99.90
14170;DHT22;7164;50.524;8.676;2022-07-06T02:17:47;15.70;99.90
14170;DHT22;7164;50.524;8.676;2022-07-06T02:20:13;15.70;99.90
14170;DHT22;7164;50.524;8.676;2022-07-06T02:22:39;15.60;99.90
14170;DHT22;7164;50.524;8.676;2022-07-06T02:25:05;15.60;99.90
14170;DHT22;7164;50.524;8.676;2022-07-06T02:27:30;15.50;99.90
14170;DHT22;7164;50.524;8.676;2022-07-06T02:29:56;15.30;99.90
14170;DHT22;7164;50.524;8.676;2022-07-06T02:32:22;15.30;99.90
14170;DHT22;7164;50.524;8.676;2022-07-06T02:34:47;15.20;99.90
14170;DHT22;7164;50.524;8.676;2022-07-06T02:37:13;15.20;99.90
14170;DHT22;7164;50.524;8.676;2022-07-06T02:39:38;15.20;99.90
14170;DHT22;7164;50.524;8.676;2022-07-06T02:42:04;15.10;99.90
14170;DHT22;7164;50.524;8.676;2022-07-06T02:44:30;15.10;99.90
14170;DHT22;7164;50.524;8.676;2022-07-06T02:46:55;15.00;99.90
14170;DHT22;7164;50.524;8.676;2022-07-06T02:49:21;15.00;99.90
14170;DHT22;7164;50.524;8.676;2022-07-06T02:51:46;15.00;99.90
14170;DHT22;7164;50.524;8.676;2022-07-06T02:54:12;14.90;99.90
14170;DHT22;7164;50.524;8.676;2022-07-06T02:56:38;14.90;99.90
14170;DHT22;7164;50.524;8.676;2022-07-06T02:59:03;14.80;99.90
14170;DHT22;7164;50.524;8.676;2022-07-06T03:01:29;14.80;99.90
14170;DHT22;7164;50.524;8.676;2022-07-06T03:03:55;14.70;99.90
14170;DHT22;7164;50.524;8.676;2022-07-06T03:06:20;14.60;99.90
14170;DHT22;7164;50.524;8.676;2022-07-06T03:08:46;14.60;99.90
14170;DHT22;7164;50.524;8.676;2022-07-06T03:11:11;14.70;99.90
14170;DHT22;7164;50.524;8.676;2022-07-06T03:13:37;14.70;99.90
14170;DHT22;7164;50.524;8.676;2022-07-06T03:16:03;14.80;99.90
14170;DHT22;7164;50.524;8.676;2022-07-06T03:18:28;14.70;99.90
14170;DHT22;7164;50.524;8.676;2022-07-06T03:20:54;14.60;99.90
14170;DHT22;7164;50.524;8.676;2022-07-06T03:23:20;14.60;99.90
14170;DHT22;7164;50.524;8.676;2022-07-06T03:25:46;14.60;99.90
14170;DHT22;7164;50.524;8.676;2022-07-06T03:28:11;14.60;99.90
14170;DHT22;7164;50.524;8.676;2022-07-06T03:30:37;14.60;99.90
14170;DHT22;7164;50.524;8.676;2022-07-06T03:33:03;14.60;99.90
14170;DHT22;7164;50.524;8.676;2022-07-06T03:35:28;14.60;99.90
14170;DHT22;7164;50.524;8.676;2022-07-06T03:37:54;14.50;99.90
14170;DHT22;7164;50.524;8.676;2022-07-06T03:40:20;14.40;99.90
14170;DHT22;7164;50.524;8.676;2022-07-06T03:42:45;14.40;99.90
14170;DHT22;7164;50.524;8.676;2022-07-06T03:45:11;14.60;99.90
14170;DHT22;7164;50.524;8.676;2022-07-06T03:47:36;14.60;99.90
14170;DHT22;7164;50.524;8.676;2022-07-06T03:50:03;14.50;99.90
14170;DHT22;7164;50.524;8.676;2022-07-06T03:52:28;14.50;99.90
14170;DHT22;7164;50.524;8.676;2022-07-06T03:54:56;14.40;99.90
14170;DHT22;7164;50.524;8.676;2022-07-06T03:57:22;14.50;99.90
14170;DHT22;7164;50.524;8.676;2022-07-06T03:59:47;14.60;99.90
14170;DHT22;7164;50.524;8.676;2022-07-06T04:02:13;14.70;99.90
14170;DHT22;7164;50.524;8.676;2022-07-06T04:04:39;14.80;99.90
14170;DHT22;7164;50.524;8.676;2022-07-06T04:07:04;14.90;99.90
14170;DHT22;7164;50.524;8.676;2022-07-06T04:09:30;14.90;99.90
14170;DHT22;7164;50.524;8.676;2022-07-06T04:11:55;15.00;99.90
14170;DHT22;7164;50.524;8.676;2022-07-06T04:14:21;15.10;99.90
14170;DHT22;7164;50.524;8.676;2022-07-06T04:16:47;15.30;99.90
14170;DHT22;7164;50.524;8.676;2022-07-06T04:19:12;15.50;99.90
14170;DHT22;7164;50.524;8.676;2022-07-06T04:21:38;15.70;99.90
14170;DHT22;7164;50.524;8.676;2022-07-06T04:24:04;15.80;99.90
14170;DHT22;7164;50.524;8.676;2022-07-06T04:26:30;16.00;99.90
14170;DHT22;7164;50.524;8.676;2022-07-06T04:28:56;16.10;99.90
14170;DHT22;7164;50.524;8.676;2022-07-06T04:31:21;16.30;99.90
14170;DHT22;7164;50.524;8.676;2022-07-06T04:33:47;16.40;99.90
14170;DHT22;7164;50.524;8.676;2022-07-06T04:36:13;16.50;99.90
14170;DHT22;7164;50.524;8.676;2022-07-06T04:38:39;16.70;99.90
14170;DHT22;7164;50.524;8.676;2022-07-06T04:41:05;16.70;99.90
14170;DHT22;7164;50.524;8.676;2022-07-06T04:43:30;16.80;99.90
14170;DHT22;7164;50.524;8.676;2022-07-06T04:45:56;16.90;99.90
14170;DHT22;7164;50.524;8.676;2022-07-06T04:48:22;17.00;99.90
14170;DHT22;7164;50.524;8.676;2022-07-06T04:50:47;17.00;99.90
14170;DHT22;7164;50.524;8.676;2022-07-06T04:53:13;17.10;99.90
14170;DHT22;7164;50.524;8.676;2022-07-06T04:55:38;17.10;99.90
14170;DHT22;7164;50.524;8.676;2022-07-06T04:58:04;17.20;99.90
14170;DHT22;7164;50.524;8.676;2022-07-06T05:00:30;17.20;99.90
14170;DHT22;7164;50.524;8.676;2022-07-06T05:02:56;17.20;99.90
14170;DHT22;7164;50.524;8.676;2022-07-06T05:05:22;17.20;99.90
14170;DHT22;7164;50.524;8.676;2022-07-06T05:07:48;17.10;99.90
14170;DHT22;7164;50.524;8.676;2022-07-06T05:10:13;17.10;99.90
14170;DHT22;7164;50.524;8.676;2022-07-06T05:12:39;17.20;99.90
14170;DHT22;7164;50.524;8.676;2022-07-06T05:15:05;17.30;99.90
14170;DHT22;7164;50.524;8.676;2022-07-06T05:17:31;17.80;99.90
14170;DHT22;7164;50.524;8.676;2022-07-06T05:19:56;18.20;99.90
14170;DHT22;7164;50.524;8.676;2022-07-06T05:22:22;18.70;99.90
14170;DHT22;7164;50.524;8.676;2022-07-06T05:24:47;19.10;99.90
14170;DHT22;7164;50.524;8.676;2022-07-06T05:27:13;19.50;99.90
14170;DHT22;7164;50.524;8.676;2022-07-06T05:29:39;19.90;99.90
14170;DHT22;7164;50.524;8.676;2022-07-06T05:32:05;20.40;99.90
14170;DHT22;7164;50.524;8.676;2022-07-06T05:34:31;20.90;99.90
14170;DHT22;7164;50.524;8.676;2022-07-06T05:36:56;21.40;99.90
14170;DHT22;7164;50.524;8.676;2022-07-06T05:39:22;21.80;99.90
14170;DHT22;7164;50.524;8.676;2022-07-06T05:41:48;22.30;99.90
14170;DHT22;7164;50.524;8.676;2022-07-06T05:44:14;22.60;99.90
14170;DHT22;7164;50.524;8.676;2022-07-06T05:46:40;23.00;99.90
14170;DHT22;7164;50.524;8.676;2022-07-06T05:49:05;23.30;99.90
14170;DHT22;7164;50.524;8.676;2022-07-06T05:51:49;23.70;99.90
14170;DHT22;7164;50.524;8.676;2022-07-06T05:54:15;24.10;99.90
14170;DHT22;7164;50.524;8.676;2022-07-06T05:56:41;24.40;99.90
14170;DHT22;7164;50.524;8.676;2022-07-06T05:59:07;24.90;99.90
14170;DHT22;7164;50.524;8.676;2022-07-06T06:01:32;25.30;99.90
14170;DHT22;7164;50.524;8.676;2022-07-06T06:03:58;25.60;99.90
14170;DHT22;7164;50.524;8.676;2022-07-06T06:06:25;25.90;99.00
14170;DHT22;7164;50.524;8.676;2022-07-06T06:08:51;26.40;98.30
14170;DHT22;7164;50.524;8.676;2022-07-06T06:11:17;26.40;97.00
14170;DHT22;7164;50.524;8.676;2022-07-06T06:13:42;26.50;96.50
14170;DHT22;7164;50.524;8.676;2022-07-06T06:16:08;26.90;96.30
14170;DHT22;7164;50.524;8.676;2022-07-06T06:18:34;26.90;94.30
14170;DHT22;7164;50.524;8.676;2022-07-06T06:20:59;27.30;93.70
14170;DHT22;7164;50.524;8.676;2022-07-06T06:23:25;27.70;92.50
14170;DHT22;7164;50.524;8.676;2022-07-06T06:25:51;28.00;91.50
14170;DHT22;7164;50.524;8.676;2022-07-06T06:28:16;28.40;90.30
14170;DHT22;7164;50.524;8.676;2022-07-06T06:30:42;28.90;88.70
14170;DHT22;7164;50.524;8.676;2022-07-06T06:33:15;29.20;86.40
14170;DHT22;7164;50.524;8.676;2022-07-06T06:35:44;29.60;84.00
14170;DHT22;7164;50.524;8.676;2022-07-06T06:38:10;30.20;82.10
14170;DHT22;7164;50.524;8.676;2022-07-06T06:40:36;30.20;79.50
14170;DHT22;7164;50.524;8.676;2022-07-06T06:43:02;30.30;79.50
14170;DHT22;7164;50.524;8.676;2022-07-06T06:45:28;30.80;77.00
14170;DHT22;7164;50.524;8.676;2022-07-06T06:47:53;31.50;75.10
14170;DHT22;7164;50.524;8.676;2022-07-06T06:50:19;31.60;75.50
14170;DHT22;7164;50.524;8.676;2022-07-06T06:52:45;31.70;72.50
14170;DHT22;7164;50.524;8.676;2022-07-06T06:55:10;32.10;71.50
14170;DHT22;7164;50.524;8.676;2022-07-06T06:57:36;32.50;67.10
14170;DHT22;7164;50.524;8.676;2022-07-06T07:00:04;32.60;67.70
14170;DHT22;7164;50.524;8.676;2022-07-06T07:02:30;33.10;66.00
14170;DHT22;7164;50.524;8.676;2022-07-06T07:04:55;32.90;64.70
14170;DHT22;7164;50.524;8.676;2022-07-06T07:10:43;33.10;64.90
14170;DHT22;7164;50.524;8.676;2022-07-06T07:13:08;33.50;63.00
14170;DHT22;7164;50.524;8.676;2022-07-06T07:15:34;33.40;61.10
14170;DHT22;7164;50.524;8.676;2022-07-06T07:18:00;33.90;62.60
14170;DHT22;7164;50.524;8.676;2022-07-06T07:20:25;34.20;59.80
14170;DHT22;7164;50.524;8.676;2022-07-06T07:22:51;34.40;59.10
14170;DHT22;7164;50.524;8.676;2022-07-06T07:25:17;35.00;57.70
14170;DHT22;7164;50.524;8.676;2022-07-06T07:27:42;35.20;58.20
14170;DHT22;7164;50.524;8.676;2022-07-06T07:30:08;35.20;56.40
14170;DHT22;7164;50.524;8.676;2022-07-06T07:32:34;35.70;56.40
14170;DHT22;7164;50.524;8.676;2022-07-06T07:35:00;36.00;56.70
14170;DHT22;7164;50.524;8.676;2022-07-06T07:37:26;36.10;56.20
14170;DHT22;7164;50.524;8.676;2022-07-06T07:39:52;36.30;52.90
14170;DHT22;7164;50.524;8.676;2022-07-06T07:42:17;36.40;53.40
14170;DHT22;7164;50.524;8.676;2022-07-06T07:44:43;36.90;53.50
14170;DHT22;7164;50.524;8.676;2022-07-06T07:47:09;37.50;52.30
14170;DHT22;7164;50.524;8.676;2022-07-06T07:49:34;38.10;52.30
14170;DHT22;7164;50.524;8.676;2022-07-06T07:52:00;38.30;49.10
14170;DHT22;7164;50.524;8.676;2022-07-06T07:54:25;38.00;48.80
14170;DHT22;7164;50.524;8.676;2022-07-06T07:56:51;38.00;48.50
14170;DHT22;7164;50.524;8.676;2022-07-06T07:59:16;38.30;49.00
14170;DHT22;7164;50.524;8.676;2022-07-06T08:01:43;37.90;48.30
14170;DHT22;7164;50.524;8.676;2022-07-06T08:04:08;37.30;48.90
14170;DHT22;7164;50.524;8.676;2022-07-06T08:06:34;37.40;49.00
14170;DHT22;7164;50.524;8.676;2022-07-06T08:09:00;37.80;46.90
14170;DHT22;7164;50.524;8.676;2022-07-06T08:11:26;38.00;46.80
14170;DHT22;7164;50.524;8.676;2022-07-06T08:13:51;38.30;46.60
14170;DHT22;7164;50.524;8.676;2022-07-06T08:16:17;38.20;46.20
14170;DHT22;7164;50.524;8.676;2022-07-06T08:18:42;38.10;46.40
14170;DHT22;7164;50.524;8.676;2022-07-06T08:21:08;38.20;47.40
14170;DHT22;7164;50.524;8.676;2022-07-06T08:23:34;38.20;47.00
14170;DHT22;7164;50.524;8.676;2022-07-06T08:26:01;38.10;46.50
14170;DHT22;7164;50.524;8.676;2022-07-06T08:28:27;37.20;47.00
14170;DHT22;7164;50.524;8.676;2022-07-06T08:30:53;37.60;46.60
14170;DHT22;7164;50.524;8.676;2022-07-06T08:33:20;38.00;45.00
14170;DHT22;7164;50.524;8.676;2022-07-06T08:35:45;38.20;44.80
14170;DHT22;7164;50.524;8.676;2022-07-06T08:38:11;38.10;45.20
14170;DHT22;7164;50.524;8.676;2022-07-06T08:40:38;37.60;44.90
14170;DHT22;7164;50.524;8.676;2022-07-06T08:43:05;38.30;44.80
14170;DHT22;7164;50.524;8.676;2022-07-06T08:45:33;39.20;44.10
14170;DHT22;7164;50.524;8.676;2022-07-06T08:48:04;39.90;43.00
14170;DHT22;7164;50.524;8.676;2022-07-06T08:53:53;40.80;42.20
14170;DHT22;7164;50.524;8.676;2022-07-06T08:56:19;40.90;42.20
14170;DHT22;7164;50.524;8.676;2022-07-06T08:58:45;40.80;42.90
14170;DHT22;7164;50.524;8.676;2022-07-06T09:01:11;40.70;41.90
14170;DHT22;7164;50.524;8.676;2022-07-06T09:03:39;41.00;42.60
14170;DHT22;7164;50.524;8.676;2022-07-06T09:06:06;41.50;40.90
14170;DHT22;7164;50.524;8.676;2022-07-06T09:08:33;41.70;41.00
14170;DHT22;7164;50.524;8.676;2022-07-06T09:10:58;41.00;40.90
14170;DHT22;7164;50.524;8.676;2022-07-06T09:13:24;41.10;41.00
14170;DHT22;7164;50.524;8.676;2022-07-06T09:15:50;41.70;41.50
14170;DHT22;7164;50.524;8.676;2022-07-06T09:18:15;42.10;39.70
14170;DHT22;7164;50.524;8.676;2022-07-06T09:20:41;42.00;40.80
14170;DHT22;7164;50.524;8.676;2022-07-06T09:23:07;41.90;40.70
14170;DHT22;7164;50.524;8.676;2022-07-06T09:25:34;40.50;40.40
14170;DHT22;7164;50.524;8.676;2022-07-06T09:28:01;39.90;40.90
14170;DHT22;7164;50.524;8.676;2022-07-06T09:30:28;39.30;41.40
14170;DHT22;7164;50.524;8.676;2022-07-06T09:32:56;38.70;41.60
14170;DHT22;7164;50.524;8.676;2022-07-06T09:35:29;38.10;43.20
14170;DHT22;7164;50.524;8.676;2022-07-06T09:38:11;38.70;41.90
14170;DHT22;7164;50.524;8.676;2022-07-06T09:40:41;39.00;40.90
14170;DHT22;7164;50.524;8.676;2022-07-06T09:45:39;40.60;39.30
14170;DHT22;7164;50.524;8.676;2022-07-06T09:48:13;41.20;40.10
14170;DHT22;7164;50.524;8.676;2022-07-06T09:50:47;41.50;39.00
14170;DHT22;7164;50.524;8.676;2022-07-06T09:53:13;41.30;39.90
14170;DHT22;7164;50.524;8.676;2022-07-06T09:55:47;41.60;38.80
14170;DHT22;7164;50.524;8.676;2022-07-06T09:58:14;42.30;38.70
14170;DHT22;7164;50.524;8.676;2022-07-06T10:00:44;42.40;38.90
14170;DHT22;7164;50.524;8.676;2022-07-06T10:03:10;41.50;39.00
14170;DHT22;7164;50.524;8.676;2022-07-06T10:05:38;40.90;37.60
14170;DHT22;7164;50.524;8.676;2022-07-06T10:08:05;39.80;38.00
14170;DHT22;7164;50.524;8.676;2022-07-06T10:10:32;39.50;40.90
14170;DHT22;7164;50.524;8.676;2022-07-06T10:12:59;40.00;39.00
14170;DHT22;7164;50.524;8.676;2022-07-06T10:15:26;38.50;41.40
14170;DHT22;7164;50.524;8.676;2022-07-06T10:17:53;37.80;42.30
14170;DHT22;7164;50.524;8.676;2022-07-06T10:20:20;36.80;42.50
14170;DHT22;7164;50.524;8.676;2022-07-06T10:22:49;35.60;43.00
14170;DHT22;7164;50.524;8.676;2022-07-06T10:25:16;35.00;43.90
14170;DHT22;7164;50.524;8.676;2022-07-06T10:27:43;34.10;43.00
14170;DHT22;7164;50.524;8.676;2022-07-06T10:30:10;33.30;43.40
14170;DHT22;7164;50.524;8.676;2022-07-06T10:32:39;33.10;45.00
14170;DHT22;7164;50.524;8.676;2022-07-06T10:35:07;33.90;44.80
14170;DHT22;7164;50.524;8.676;2022-07-06T10:37:32;34.60;44.50
14170;DHT22;7164;50.524;8.676;2022-07-06T10:39:59;35.20;45.70
14170;DHT22;7164;50.524;8.676;2022-07-06T10:45:11;33.70;44.90
14170;DHT22;7164;50.524;8.676;2022-07-06T10:47:37;32.40;45.70
14170;DHT22;7164;50.524;8.676;2022-07-06T10:50:04;32.10;46.70
14170;DHT22;7164;50.524;8.676;2022-07-06T10:52:51;32.20;46.90
14170;DHT22;7164;50.524;8.676;2022-07-06T10:55:35;32.10;46.90
14170;DHT22;7164;50.524;8.676;2022-07-06T10:58:01;32.10;46.00
14170;DHT22;7164;50.524;8.676;2022-07-06T11:06:08;30.70;48.40
14170;DHT22;7164;50.524;8.676;2022-07-06T11:11:16;30.00;49.30
14170;DHT22;7164;50.524;8.676;2022-07-06T11:13:48;29.90;48.90
14170;DHT22;7164;50.524;8.676;2022-07-06T11:16:16;29.80;48.60
14170;DHT22;7164;50.524;8.676;2022-07-06T11:18:46;29.80;48.10
14170;DHT22;7164;50.524;8.676;2022-07-06T11:21:20;29.50;49.90
14170;DHT22;7164;50.524;8.676;2022-07-06T11:23:48;29.60;49.10
14170;DHT22;7164;50.524;8.676;2022-07-06T11:26:15;29.60;50.40
14170;DHT22;7164;50.524;8.676;2022-07-06T11:28:41;29.60;49.70
14170;DHT22;7164;50.524;8.676;2022-07-06T11:31:06;29.40;49.30
14170;DHT22;7164;50.524;8.676;2022-07-06T11:33:32;29.30;48.40
14170;DHT22;7164;50.524;8.676;2022-07-06T11:36:30;29.40;48.30
14170;DHT22;7164;50.524;8.676;2022-07-06T11:38:56;29.20;48.60
14170;DHT22;7164;50.524;8.676;2022-07-06T11:41:22;29.10;48.30
14170;DHT22;7164;50.524;8.676;2022-07-06T11:43:48;29.10;49.10
14170;DHT22;7164;50.524;8.676;2022-07-06T11:51:29;29.10;49.40
14170;DHT22;7164;50.524;8.676;2022-07-06T11:53:59;29.10;49.30
14170;DHT22;7164;50.524;8.676;2022-07-06T11:56:26;28.60;52.00
14170;DHT22;7164;50.524;8.676;2022-07-06T11:58:54;28.50;49.70
14170;DHT22;7164;50.524;8.676;2022-07-06T12:01:21;28.10;52.60
14170;DHT22;7164;50.524;8.676;2022-07-06T12:03:47;28.20;51.30
14170;DHT22;7164;50.524;8.676;2022-07-06T12:06:15;28.20;50.80
14170;DHT22;7164;50.524;8.676;2022-07-06T12:08:45;28.00;51.60
14170;DHT22;7164;50.524;8.676;2022-07-06T12:11:20;27.80;52.00
14170;DHT22;7164;50.524;8.676;2022-07-06T12:13:47;27.90;52.60
14170;DHT22;7164;50.524;8.676;2022-07-06T12:16:13;27.80;51.40
14170;DHT22;7164;50.524;8.676;2022-07-06T12:18:41;27.80;54.10
14170;DHT22;7164;50.524;8.676;2022-07-06T12:21:10;28.00;52.30
14170;DHT22;7164;50.524;8.676;2022-07-06T12:23:47;27.80;52.10
14170;DHT22;7164;50.524;8.676;2022-07-06T12:26:14;27.70;53.00
14170;DHT22;7164;50.524;8.676;2022-07-06T12:28:41;27.90;52.50
14170;DHT22;7164;50.524;8.676;2022-07-06T12:31:07;28.20;52.20
14170;DHT22;7164;50.524;8.676;2022-07-06T12:33:33;28.20;52.20
14170;DHT22;7164;50.524;8.676;2022-07-06T12:36:15;28.10;51.60
14170;DHT22;7164;50.524;8.676;2022-07-06T12:38:45;27.90;53.30
14170;DHT22;7164;50.524;8.676;2022-07-06T12:44:02;27.30;52.70
14170;DHT22;7164;50.524;8.676;2022-07-06T12:46:30;27.20;53.80
14170;DHT22;7164;50.524;8.676;2022-07-06T12:48:57;27.00;53.70
14170;DHT22;7164;50.524;8.676;2022-07-06T12:51:24;26.90;53.40
14170;DHT22;7164;50.524;8.676;2022-07-06T12:53:49;26.80;52.50
14170;DHT22;7164;50.524;8.676;2022-07-06T12:56:16;26.60;53.80
14170;DHT22;7164;50.524;8.676;2022-07-06T12:58:59;26.80;55.00
14170;DHT22;7164;50.524;8.676;2022-07-06T13:01:25;26.90;54.20
14170;DHT22;7164;50.524;8.676;2022-07-06T13:03:58;26.90;53.50
14170;DHT22;7164;50.524;8.676;2022-07-06T13:06:32;26.80;53.90
14170;DHT22;7164;50.524;8.676;2022-07-06T13:08:58;26.70;53.50
14170;DHT22;7164;50.524;8.676;2022-07-06T13:11:24;26.60;54.20
14170;DHT22;7164;50.524;8.676;2022-07-06T13:13:50;26.70;53.60
14170;DHT22;7164;50.524;8.676;2022-07-06T13:16:16;26.70;53.00
14170;DHT22;7164;50.524;8.676;2022-07-06T13:18:41;26.80;52.80
14170;DHT22;7164;50.524;8.676;2022-07-06T13:21:07;26.80;53.40
14170;DHT22;7164;50.524;8.676;2022-07-06T13:23:33;26.80;53.30
14170;DHT22;7164;50.524;8.676;2022-07-06T13:25:58;26.70;52.30
14170;DHT22;7164;50.524;8.676;2022-07-06T13:28:24;26.60;53.20
14170;DHT22;7164;50.524;8.676;2022-07-06T13:30:50;26.70;52.80
14170;DHT22;7164;50.524;8.676;2022-07-06T13:33:15;26.30;52.40
14170;DHT22;7164;50.524;8.676;2022-07-06T13:35:41;26.30;52.40
14170;DHT22;7164;50.524;8.676;2022-07-06T13:38:06;26.10;53.90
14170;DHT22;7164;50.524;8.676;2022-07-06T13:40:32;26.20;54.00
14170;DHT22;7164;50.524;8.676;2022-07-06T13:43:00;26.30;53.70
14170;DHT22;7164;50.524;8.676;2022-07-06T13:45:25;26.30;54.40
14170;DHT22;7164;50.524;8.676;2022-07-06T13:47:51;26.30;54.90
14170;DHT22;7164;50.524;8.676;2022-07-06T13:50:17;26.20;55.20
14170;DHT22;7164;50.524;8.676;2022-07-06T13:52:42;26.10;54.50
14170;DHT22;7164;50.524;8.676;2022-07-06T13:55:08;26.00;55.30
14170;DHT22;7164;50.524;8.676;2022-07-06T13:57:35;26.00;54.90
14170;DHT22;7164;50.524;8.676;2022-07-06T14:00:00;26.00;55.70
14170;DHT22;7164;50.524;8.676;2022-07-06T14:02:26;25.90;54.90
14170;DHT22;7164;50.524;8.676;2022-07-06T14:04:52;26.00;54.90
14170;DHT22;7164;50.524;8.676;2022-07-06T14:07:17;26.10;54.60
14170;DHT22;7164;50.524;8.676;2022-07-06T14:09:43;26.10;54.40
14170;DHT22;7164;50.524;8.676;2022-07-06T14:12:09;26.20;54.10
14170;DHT22;7164;50.524;8.676;2022-07-06T14:14:34;26.40;53.70
14170;DHT22;7164;50.524;8.676;2022-07-06T14:17:00;26.70;53.00
14170;DHT22;7164;50.524;8.676;2022-07-06T14:19:26;26.70;53.00
14170;DHT22;7164;50.524;8.676;2022-07-06T14:21:51;26.60;52.40
14170;DHT22;7164;50.524;8.676;2022-07-06T14:24:17;26.60;52.50
14170;DHT22;7164;50.524;8.676;2022-07-06T14:26:43;26.40;52.80
14170;DHT22;7164;50.524;8.676;2022-07-06T14:29:09;26.50;53.60
14170;DHT22;7164;50.524;8.676;2022-07-06T14:31:35;26.60;53.70
14170;DHT22;7164;50.524;8.676;2022-07-06T14:34:00;26.60;53.20
14170;DHT22;7164;50.524;8.676;2022-07-06T14:36:27;26.60;53.70
14170;DHT22;7164;50.524;8.676;2022-07-06T14:38:52;26.50;53.80
14170;DHT22;7164;50.524;8.676;2022-07-06T14:41:18;26.40;53.90
14170;DHT22;7164;50.524;8.676;2022-07-06T14:43:43;26.50;53.40
14170;DHT22;7164;50.524;8.676;2022-07-06T14:46:09;26.50;53.30
14170;DHT22;7164;50.524;8.676;2022-07-06T14:48:34;26.40;53.30
14170;DHT22;7164;50.524;8.676;2022-07-06T14:51:00;26.30;53.30
14170;DHT22;7164;50.524;8.676;2022-07-06T14:53:26;26.20;53.60
14170;DHT22;7164;50.524;8.676;2022-07-06T14:55:52;26.20;55.60
14170;DHT22;7164;50.524;8.676;2022-07-06T14:58:17;26.10;53.80
14170;DHT22;7164;50.524;8.676;2022-07-06T15:00:44;26.20;53.90
14170;DHT22;7164;50.524;8.676;2022-07-06T15:03:10;26.30;53.90
14170;DHT22;7164;50.524;8.676;2022-07-06T15:05:36;26.30;54.50
14170;DHT22;7164;50.524;8.676;2022-07-06T15:08:02;26.30;54.20
14170;DHT22;7164;50.524;8.676;2022-07-06T15:10:28;26.20;54.80
14170;DHT22;7164;50.524;8.676;2022-07-06T15:12:54;26.30;55.10
14170;DHT22;7164;50.524;8.676;2022-07-06T15:15:20;26.40;54.60
14170;DHT22;7164;50.524;8.676;2022-07-06T15:17:45;26.40;54.10
14170;DHT22;7164;50.524;8.676;2022-07-06T15:20:11;26.50;54.60
14170;DHT22;7164;50.524;8.676;2022-07-06T15:22:37;26.30;54.50
14170;DHT22;7164;50.524;8.676;2022-07-06T15:25:03;26.20;56.20
14170;DHT22;7164;50.524;8.676;2022-07-06T15:27:29;26.20;56.10
14170;DHT22;7164;50.524;8.676;2022-07-06T15:29:55;26.00;56.00
14170;DHT22;7164;50.524;8.676;2022-07-06T15:32:21;25.80;56.20
14170;DHT22;7164;50.524;8.676;2022-07-06T15:34:48;25.60;56.10
14170;DHT22;7164;50.524;8.676;2022-07-06T15:37:13;25.60;57.50
14170;DHT22;7164;50.524;8.676;2022-07-06T15:39:39;25.10;56.60
14170;DHT22;7164;50.524;8.676;2022-07-06T15:42:06;25.20;57.90
14170;DHT22;7164;50.524;8.676;2022-07-06T15:44:31;25.30;57.00
14170;DHT22;7164;50.524;8.676;2022-07-06T15:47:03;25.10;55.80
14170;DHT22;7164;50.524;8.676;2022-07-06T15:49:30;24.60;58.30
14170;DHT22;7164;50.524;8.676;2022-07-06T15:51:55;24.70;58.10
14170;DHT22;7164;50.524;8.676;2022-07-06T15:54:21;24.80;56.90
14170;DHT22;7164;50.524;8.676;2022-07-06T15:56:47;24.80;56.50
14170;DHT22;7164;50.524;8.676;2022-07-06T15:59:12;24.90;57.50
14170;DHT22;7164;50.524;8.676;2022-07-06T16:01:38;24.70;56.50
14170;DHT22;7164;50.524;8.676;2022-07-06T16:04:04;24.70;57.00
14170;DHT22;7164;50.524;8.676;2022-07-06T16:06:30;24.70;57.40
14170;DHT22;7164;50.524;8.676;2022-07-06T16:08:55;24.80;57.30